sensor_id;sensor_type;location;lat;lon;timestamp;P1;durP1;ratioP1;P2;durP2;ratioP2
11346;SDS011;5728;42.722;23.258;2023-04-25T00:00:38;5.13;;;2.63;;
11346;SDS011;5728;42.722;23.258;2023-04-25T00:03:06;2.50;;;2.30;;
11346;SDS011;5728;42.722;23.258;2023-04-25T00:05:34;2.83;;;2.63;;
11346;SDS011;5728;42.722;23.258;2023-04-25T00:08:02;3.13;;;2.83;;
11346;SDS011;5728;42.722;23.258;2023-04-25T00:10:29;3.40;;;2.70;;
11346;SDS011;5728;42.722;23.258;2023-04-25T00:12:56;4.80;;;3.03;;
11346;SDS011;5728;42.722;23.258;2023-04-25T00:15:23;3.50;;;2.27;;
11346;SDS011;5728;42.722;23.258;2023-04-25T00:17:50;4.10;;;3.17;;
11346;SDS011;5728;42.722;23.258;2023-04-25T00:20:19;5.83;;;3.33;;
11346;SDS011;5728;42.722;23.258;2023-04-25T00:22:46;3.40;;;3.10;;
11346;SDS011;5728;42.722;23.258;2023-04-25T00:25:13;7.87;;;3.67;;
11346;SDS011;5728;42.722;23.258;2023-04-25T00:27:40;6.33;;;3.37;;
11346;SDS011;5728;42.722;23.258;2023-04-25T00:30:07;5.77;;;2.80;;
11346;SDS011;5728;42.722;23.258;2023-04-25T00:32:34;4.50;;;2.57;;
11346;SDS011;5728;42.722;23.258;2023-04-25T00:35:01;3.30;;;2.50;;
11346;SDS011;5728;42.722;23.258;2023-04-25T00:37:29;2.50;;;2.30;;
11346;SDS011;5728;42.722;23.258;2023-04-25T00:39:57;4.27;;;1.97;;
11346;SDS011;5728;42.722;23.258;2023-04-25T00:42:24;4.47;;;2.13;;
11346;SDS011;5728;42.722;23.258;2023-04-25T00:44:51;2.23;;;1.80;;
11346;SDS011;5728;42.722;23.258;2023-04-25T00:47:19;2.60;;;1.53;;
11346;SDS011;5728;42.722;23.258;2023-04-25T00:49:46;1.90;;;1.73;;
11346;SDS011;5728;42.722;23.258;2023-04-25T00:52:12;1.50;;;1.40;;
11346;SDS011;5728;42.722;23.258;2023-04-25T00:54:40;1.60;;;1.50;;
11346;SDS011;5728;42.722;23.258;2023-04-25T00:57:07;1.50;;;1.40;;
11346;SDS011;5728;42.722;23.258;2023-04-25T00:59:35;1.83;;;1.50;;
11346;SDS011;5728;42.722;23.258;2023-04-25T01:02:03;1.43;;;1.33;;
11346;SDS011;5728;42.722;23.258;2023-04-25T01:04:30;2.60;;;1.57;;
11346;SDS011;5728;42.722;23.258;2023-04-25T01:06:57;1.60;;;1.50;;
11346;SDS011;5728;42.722;23.258;2023-04-25T01:09:24;1.83;;;1.40;;
11346;SDS011;5728;42.722;23.258;2023-04-25T01:11:53;2.07;;;1.80;;
11346;SDS011;5728;42.722;23.258;2023-04-25T01:14:20;1.60;;;1.50;;
11346;SDS011;5728;42.722;23.258;2023-04-25T01:16:47;3.47;;;1.67;;
11346;SDS011;5728;42.722;23.258;2023-04-25T01:19:15;2.60;;;1.93;;
11346;SDS011;5728;42.722;23.258;2023-04-25T01:21:44;2.40;;;2.20;;
11346;SDS011;5728;42.722;23.258;2023-04-25T01:24:12;3.97;;;3.00;;
11346;SDS011;5728;42.722;23.258;2023-04-25T01:26:39;3.67;;;3.10;;
11346;SDS011;5728;42.722;23.258;2023-04-25T01:29:09;5.53;;;3.63;;
11346;SDS011;5728;42.722;23.258;2023-04-25T01:31:36;6.17;;;3.40;;
11346;SDS011;5728;42.722;23.258;2023-04-25T01:34:04;3.77;;;3.33;;
11346;SDS011;5728;42.722;23.258;2023-04-25T01:36:30;4.77;;;4.00;;
11346;SDS011;5728;42.722;23.258;2023-04-25T01:38:58;8.93;;;5.20;;
11346;SDS011;5728;42.722;23.258;2023-04-25T01:41:26;6.23;;;4.60;;
11346;SDS011;5728;42.722;23.258;2023-04-25T01:43:53;5.50;;;4.60;;
11346;SDS011;5728;42.722;23.258;2023-04-25T01:46:20;5.60;;;4.87;;
11346;SDS011;5728;42.722;23.258;2023-04-25T01:48:47;6.23;;;5.63;;
11346;SDS011;5728;42.722;23.258;2023-04-25T01:51:14;6.70;;;6.00;;
11346;SDS011;5728;42.722;23.258;2023-04-25T01:53:41;8.27;;;5.60;;
11346;SDS011;5728;42.722;23.258;2023-04-25T01:56:11;12.50;;;5.87;;
11346;SDS011;5728;42.722;23.258;2023-04-25T01:58:38;10.70;;;7.53;;
11346;SDS011;5728;42.722;23.258;2023-04-25T02:01:04;9.63;;;6.57;;
11346;SDS011;5728;42.722;23.258;2023-04-25T02:03:31;9.23;;;6.97;;
11346;SDS011;5728;42.722;23.258;2023-04-25T02:05:58;11.10;;;8.07;;
11346;SDS011;5728;42.722;23.258;2023-04-25T02:08:25;10.53;;;8.33;;
11346;SDS011;5728;42.722;23.258;2023-04-25T02:10:52;9.23;;;7.57;;
11346;SDS011;5728;42.722;23.258;2023-04-25T02:13:20;11.63;;;8.37;;
11346;SDS011;5728;42.722;23.258;2023-04-25T02:15:47;12.17;;;8.43;;
11346;SDS011;5728;42.722;23.258;2023-04-25T02:18:13;9.43;;;7.70;;
11346;SDS011;5728;42.722;23.258;2023-04-25T02:20:41;11.60;;;9.43;;
11346;SDS011;5728;42.722;23.258;2023-04-25T02:23:09;10.33;;;7.70;;
11346;SDS011;5728;42.722;23.258;2023-04-25T02:25:35;9.50;;;8.47;;
11346;SDS011;5728;42.722;23.258;2023-04-25T02:28:02;14.57;;;8.90;;
11346;SDS011;5728;42.722;23.258;2023-04-25T02:30:30;9.80;;;7.83;;
11346;SDS011;5728;42.722;23.258;2023-04-25T02:32:57;11.77;;;9.50;;
11346;SDS011;5728;42.722;23.258;2023-04-25T02:35:24;15.63;;;11.77;;
11346;SDS011;5728;42.722;23.258;2023-04-25T02:37:51;17.60;;;12.27;;
11346;SDS011;5728;42.722;23.258;2023-04-25T02:40:17;22.90;;;14.90;;
11346;SDS011;5728;42.722;23.258;2023-04-25T02:42:44;24.40;;;16.80;;
11346;SDS011;5728;42.722;23.258;2023-04-25T02:45:11;22.30;;;16.03;;
11346;SDS011;5728;42.722;23.258;2023-04-25T02:47:42;33.30;;;19.43;;
11346;SDS011;5728;42.722;23.258;2023-04-25T02:50:09;31.07;;;19.73;;
11346;SDS011;5728;42.722;23.258;2023-04-25T02:52:36;29.20;;;19.17;;
11346;SDS011;5728;42.722;23.258;2023-04-25T02:55:06;21.50;;;15.67;;
11346;SDS011;5728;42.722;23.258;2023-04-25T02:57:33;23.33;;;17.23;;
11346;SDS011;5728;42.722;23.258;2023-04-25T03:00:00;22.27;;;13.40;;
11346;SDS011;5728;42.722;23.258;2023-04-25T03:02:26;28.03;;;20.10;;
11346;SDS011;5728;42.722;23.258;2023-04-25T03:04:54;30.87;;;19.30;;
11346;SDS011;5728;42.722;23.258;2023-04-25T03:07:21;29.43;;;17.83;;
11346;SDS011;5728;42.722;23.258;2023-04-25T03:09:48;27.33;;;18.70;;
11346;SDS011;5728;42.722;23.258;2023-04-25T03:12:15;26.53;;;19.17;;
11346;SDS011;5728;42.722;23.258;2023-04-25T03:14:42;29.47;;;18.07;;
11346;SDS011;5728;42.722;23.258;2023-04-25T03:17:08;21.17;;;13.90;;
11346;SDS011;5728;42.722;23.258;2023-04-25T03:19:35;17.90;;;12.27;;
11346;SDS011;5728;42.722;23.258;2023-04-25T03:22:03;18.37;;;10.53;;
11346;SDS011;5728;42.722;23.258;2023-04-25T03:24:30;18.80;;;10.20;;
11346;SDS011;5728;42.722;23.258;2023-04-25T03:26:57;12.77;;;9.40;;
11346;SDS011;5728;42.722;23.258;2023-04-25T03:29:23;13.97;;;9.23;;
11346;SDS011;5728;42.722;23.258;2023-04-25T03:31:51;13.57;;;10.00;;
11346;SDS011;5728;42.722;23.258;2023-04-25T03:34:18;16.53;;;9.70;;
11346;SDS011;5728;42.722;23.258;2023-04-25T03:36:46;12.00;;;9.20;;
11346;SDS011;5728;42.722;23.258;2023-04-25T03:39:14;11.83;;;9.57;;
11346;SDS011;5728;42.722;23.258;2023-04-25T03:41:41;16.03;;;8.47;;
11346;SDS011;5728;42.722;23.258;2023-04-25T03:44:08;11.30;;;8.00;;
11346;SDS011;5728;42.722;23.258;2023-04-25T03:46:35;11.83;;;8.57;;
11346;SDS011;5728;42.722;23.258;2023-04-25T03:49:02;11.27;;;8.23;;
11346;SDS011;5728;42.722;23.258;2023-04-25T03:51:28;14.57;;;8.47;;
11346;SDS011;5728;42.722;23.258;2023-04-25T03:53:56;15.40;;;9.97;;
11346;SDS011;5728;42.722;23.258;2023-04-25T03:56:24;13.37;;;9.30;;
11346;SDS011;5728;42.722;23.258;2023-04-25T03:58:51;13.47;;;10.43;;
11346;SDS011;5728;42.722;23.258;2023-04-25T04:01:18;14.37;;;9.03;;
11346;SDS011;5728;42.722;23.258;2023-04-25T04:03:44;14.10;;;10.43;;
11346;SDS011;5728;42.722;23.258;2023-04-25T04:06:11;14.00;;;9.63;;
11346;SDS011;5728;42.722;23.258;2023-04-25T04:08:38;13.30;;;9.40;;
11346;SDS011;5728;42.722;23.258;2023-04-25T04:11:04;14.70;;;9.20;;
11346;SDS011;5728;42.722;23.258;2023-04-25T04:13:34;15.93;;;10.20;;
11346;SDS011;5728;42.722;23.258;2023-04-25T04:16:01;12.07;;;8.60;;
11346;SDS011;5728;42.722;23.258;2023-04-25T04:18:29;12.50;;;8.70;;
11346;SDS011;5728;42.722;23.258;2023-04-25T04:20:56;14.03;;;7.53;;
11346;SDS011;5728;42.722;23.258;2023-04-25T04:23:23;12.60;;;8.37;;
11346;SDS011;5728;42.722;23.258;2023-04-25T04:25:52;11.93;;;7.90;;
11346;SDS011;5728;42.722;23.258;2023-04-25T04:28:19;10.77;;;7.50;;
11346;SDS011;5728;42.722;23.258;2023-04-25T04:30:48;10.00;;;7.47;;
11346;SDS011;5728;42.722;23.258;2023-04-25T04:33:16;10.83;;;7.37;;
11346;SDS011;5728;42.722;23.258;2023-04-25T04:35:44;10.67;;;7.53;;
11346;SDS011;5728;42.722;23.258;2023-04-25T04:38:11;11.10;;;7.63;;
11346;SDS011;5728;42.722;23.258;2023-04-25T04:40:40;12.13;;;8.23;;
11346;SDS011;5728;42.722;23.258;2023-04-25T04:43:08;9.87;;;8.07;;
11346;SDS011;5728;42.722;23.258;2023-04-25T04:45:35;10.93;;;8.30;;
11346;SDS011;5728;42.722;23.258;2023-04-25T04:48:05;10.47;;;7.27;;
11346;SDS011;5728;42.722;23.258;2023-04-25T04:50:31;10.57;;;7.50;;
11346;SDS011;5728;42.722;23.258;2023-04-25T04:52:59;9.60;;;5.73;;
11346;SDS011;5728;42.722;23.258;2023-04-25T04:55:25;10.30;;;5.00;;
11346;SDS011;5728;42.722;23.258;2023-04-25T04:57:52;6.33;;;5.30;;
11346;SDS011;5728;42.722;23.258;2023-04-25T05:00:19;8.90;;;5.90;;
11346;SDS011;5728;42.722;23.258;2023-04-25T05:02:46;8.57;;;5.90;;
11346;SDS011;5728;42.722;23.258;2023-04-25T05:05:15;8.50;;;6.40;;
11346;SDS011;5728;42.722;23.258;2023-04-25T05:07:41;8.73;;;6.10;;
11346;SDS011;5728;42.722;23.258;2023-04-25T05:10:08;7.30;;;6.13;;
11346;SDS011;5728;42.722;23.258;2023-04-25T05:12:36;10.13;;;7.07;;
11346;SDS011;5728;42.722;23.258;2023-04-25T05:15:03;9.07;;;6.37;;
11346;SDS011;5728;42.722;23.258;2023-04-25T05:17:30;9.37;;;6.50;;
11346;SDS011;5728;42.722;23.258;2023-04-25T05:19:57;7.80;;;6.53;;
11346;SDS011;5728;42.722;23.258;2023-04-25T05:22:25;9.23;;;6.43;;
11346;SDS011;5728;42.722;23.258;2023-04-25T05:24:52;7.87;;;6.63;;
11346;SDS011;5728;42.722;23.258;2023-04-25T05:27:19;7.37;;;5.53;;
11346;SDS011;5728;42.722;23.258;2023-04-25T05:29:46;7.57;;;5.10;;
11346;SDS011;5728;42.722;23.258;2023-04-25T05:32:12;7.73;;;4.80;;
11346;SDS011;5728;42.722;23.258;2023-04-25T05:34:39;7.00;;;5.50;;
11346;SDS011;5728;42.722;23.258;2023-04-25T05:37:06;8.70;;;5.70;;
11346;SDS011;5728;42.722;23.258;2023-04-25T05:39:35;7.60;;;5.40;;
11346;SDS011;5728;42.722;23.258;2023-04-25T05:42:02;7.70;;;5.50;;
11346;SDS011;5728;42.722;23.258;2023-04-25T05:44:30;7.83;;;5.80;;
11346;SDS011;5728;42.722;23.258;2023-04-25T05:46:57;8.40;;;4.73;;
11346;SDS011;5728;42.722;23.258;2023-04-25T05:49:23;6.33;;;5.03;;
11346;SDS011;5728;42.722;23.258;2023-04-25T05:51:50;6.57;;;4.67;;
11346;SDS011;5728;42.722;23.258;2023-04-25T05:54:17;11.17;;;5.83;;
11346;SDS011;5728;42.722;23.258;2023-04-25T05:56:45;5.80;;;5.20;;
11346;SDS011;5728;42.722;23.258;2023-04-25T05:59:12;9.57;;;4.97;;
11346;SDS011;5728;42.722;23.258;2023-04-25T06:01:38;9.33;;;5.30;;
11346;SDS011;5728;42.722;23.258;2023-04-25T06:04:05;8.83;;;5.43;;
11346;SDS011;5728;42.722;23.258;2023-04-25T06:06:32;9.53;;;5.60;;
11346;SDS011;5728;42.722;23.258;2023-04-25T06:08:58;14.73;;;5.73;;
11346;SDS011;5728;42.722;23.258;2023-04-25T06:11:25;13.17;;;5.30;;
11346;SDS011;5728;42.722;23.258;2023-04-25T06:13:53;8.57;;;5.07;;
11346;SDS011;5728;42.722;23.258;2023-04-25T06:16:20;13.57;;;5.03;;
11346;SDS011;5728;42.722;23.258;2023-04-25T06:18:47;6.67;;;5.80;;
11346;SDS011;5728;42.722;23.258;2023-04-25T06:21:13;5.03;;;4.53;;
11346;SDS011;5728;42.722;23.258;2023-04-25T06:23:40;8.07;;;5.27;;
11346;SDS011;5728;42.722;23.258;2023-04-25T06:26:07;13.40;;;5.77;;
11346;SDS011;5728;42.722;23.258;2023-04-25T06:28:33;9.60;;;5.67;;
11346;SDS011;5728;42.722;23.258;2023-04-25T06:31:01;6.73;;;5.50;;
11346;SDS011;5728;42.722;23.258;2023-04-25T06:33:28;9.17;;;4.97;;
11346;SDS011;5728;42.722;23.258;2023-04-25T06:35:55;7.03;;;4.97;;
11346;SDS011;5728;42.722;23.258;2023-04-25T06:38:22;7.57;;;5.93;;
11346;SDS011;5728;42.722;23.258;2023-04-25T06:40:48;6.50;;;5.40;;
11346;SDS011;5728;42.722;23.258;2023-04-25T06:43:15;9.07;;;5.60;;
11346;SDS011;5728;42.722;23.258;2023-04-25T06:45:42;7.10;;;5.67;;
11346;SDS011;5728;42.722;23.258;2023-04-25T06:48:10;7.05;;;5.93;;
11346;SDS011;5728;42.722;23.258;2023-04-25T06:50:36;11.50;;;6.10;;
11346;SDS011;5728;42.722;23.258;2023-04-25T06:53:03;8.87;;;6.57;;
11346;SDS011;5728;42.722;23.258;2023-04-25T06:55:30;9.23;;;6.83;;
11346;SDS011;5728;42.722;23.258;2023-04-25T06:57:56;9.67;;;8.10;;
11346;SDS011;5728;42.722;23.258;2023-04-25T07:00:23;11.47;;;8.00;;
11346;SDS011;5728;42.722;23.258;2023-04-25T07:02:50;18.67;;;8.00;;
11346;SDS011;5728;42.722;23.258;2023-04-25T07:05:18;16.00;;;9.98;;
11346;SDS011;5728;42.722;23.258;2023-04-25T07:07:45;13.20;;;8.90;;
11346;SDS011;5728;42.722;23.258;2023-04-25T07:10:12;16.57;;;9.50;;
11346;SDS011;5728;42.722;23.258;2023-04-25T07:12:38;12.80;;;9.13;;
11346;SDS011;5728;42.722;23.258;2023-04-25T07:15:06;13.63;;;9.67;;
11346;SDS011;5728;42.722;23.258;2023-04-25T07:17:35;11.37;;;8.83;;
11346;SDS011;5728;42.722;23.258;2023-04-25T07:20:01;16.07;;;10.03;;
11346;SDS011;5728;42.722;23.258;2023-04-25T07:22:32;12.07;;;9.30;;
11346;SDS011;5728;42.722;23.258;2023-04-25T07:24:59;11.43;;;9.32;;
11346;SDS011;5728;42.722;23.258;2023-04-25T07:27:25;11.25;;;9.80;;
11346;SDS011;5728;42.722;23.258;2023-04-25T07:29:52;14.85;;;9.15;;
11346;SDS011;5728;42.722;23.258;2023-04-25T07:32:19;14.88;;;8.65;;
11346;SDS011;5728;42.722;23.258;2023-04-25T07:34:45;13.55;;;8.93;;
11346;SDS011;5728;42.722;23.258;2023-04-25T07:37:12;11.85;;;8.68;;
11346;SDS011;5728;42.722;23.258;2023-04-25T07:39:41;13.30;;;8.60;;
11346;SDS011;5728;42.722;23.258;2023-04-25T07:42:08;11.55;;;8.60;;
11346;SDS011;5728;42.722;23.258;2023-04-25T07:44:34;13.65;;;8.43;;
11346;SDS011;5728;42.722;23.258;2023-04-25T07:47:04;16.92;;;9.07;;
11346;SDS011;5728;42.722;23.258;2023-04-25T07:49:32;12.32;;;8.98;;
11346;SDS011;5728;42.722;23.258;2023-04-25T07:51:58;15.90;;;9.27;;
11346;SDS011;5728;42.722;23.258;2023-04-25T07:54:25;12.40;;;9.10;;
11346;SDS011;5728;42.722;23.258;2023-04-25T07:56:53;12.15;;;7.80;;
11346;SDS011;5728;42.722;23.258;2023-04-25T07:59:20;20.52;;;8.98;;
11346;SDS011;5728;42.722;23.258;2023-04-25T08:01:47;15.85;;;9.07;;
11346;SDS011;5728;42.722;23.258;2023-04-25T08:04:14;8.90;;;7.97;;
11346;SDS011;5728;42.722;23.258;2023-04-25T08:06:41;12.25;;;8.00;;
11346;SDS011;5728;42.722;23.258;2023-04-25T08:09:07;12.43;;;8.20;;
11346;SDS011;5728;42.722;23.258;2023-04-25T08:11:35;12.70;;;8.70;;
11346;SDS011;5728;42.722;23.258;2023-04-25T08:14:03;8.77;;;6.78;;
11346;SDS011;5728;42.722;23.258;2023-04-25T08:16:31;12.30;;;8.20;;
11346;SDS011;5728;42.722;23.258;2023-04-25T08:18:58;16.60;;;7.32;;
11346;SDS011;5728;42.722;23.258;2023-04-25T08:21:26;14.15;;;8.18;;
11346;SDS011;5728;42.722;23.258;2023-04-25T08:23:53;8.43;;;7.53;;
11346;SDS011;5728;42.722;23.258;2023-04-25T08:26:20;10.07;;;7.20;;
11346;SDS011;5728;42.722;23.258;2023-04-25T08:28:47;16.95;;;6.90;;
11346;SDS011;5728;42.722;23.258;2023-04-25T08:31:15;15.38;;;7.20;;
11346;SDS011;5728;42.722;23.258;2023-04-25T08:33:42;14.60;;;7.50;;
11346;SDS011;5728;42.722;23.258;2023-04-25T08:36:09;12.98;;;6.20;;
11346;SDS011;5728;42.722;23.258;2023-04-25T08:38:37;5.43;;;3.80;;
11346;SDS011;5728;42.722;23.258;2023-04-25T08:41:04;4.43;;;2.50;;
11346;SDS011;5728;42.722;23.258;2023-04-25T08:43:32;8.07;;;3.27;;
11346;SDS011;5728;42.722;23.258;2023-04-25T08:46:01;16.13;;;8.40;;
11346;SDS011;5728;42.722;23.258;2023-04-25T08:48:30;12.53;;;8.83;;
11346;SDS011;5728;42.722;23.258;2023-04-25T08:50:59;13.33;;;8.63;;
11346;SDS011;5728;42.722;23.258;2023-04-25T08:53:29;16.40;;;9.57;;
11346;SDS011;5728;42.722;23.258;2023-04-25T08:55:58;12.57;;;7.57;;
11346;SDS011;5728;42.722;23.258;2023-04-25T08:58:26;11.20;;;7.75;;
11346;SDS011;5728;42.722;23.258;2023-04-25T09:00:54;8.63;;;7.15;;
11346;SDS011;5728;42.722;23.258;2023-04-25T09:03:20;8.48;;;6.63;;
11346;SDS011;5728;42.722;23.258;2023-04-25T09:05:48;10.65;;;6.90;;
11346;SDS011;5728;42.722;23.258;2023-04-25T09:08:15;5.05;;;4.55;;
11346;SDS011;5728;42.722;23.258;2023-04-25T09:10:42;12.63;;;5.95;;
11346;SDS011;5728;42.722;23.258;2023-04-25T09:13:09;7.55;;;6.10;;
11346;SDS011;5728;42.722;23.258;2023-04-25T09:15:47;11.68;;;5.78;;
11346;SDS011;5728;42.722;23.258;2023-04-25T09:18:21;6.32;;;5.22;;
11346;SDS011;5728;42.722;23.258;2023-04-25T09:20:50;11.52;;;5.82;;
11346;SDS011;5728;42.722;23.258;2023-04-25T09:23:18;5.50;;;4.50;;
11346;SDS011;5728;42.722;23.258;2023-04-25T09:25:46;7.88;;;4.95;;
11346;SDS011;5728;42.722;23.258;2023-04-25T09:28:14;6.20;;;4.20;;
11346;SDS011;5728;42.722;23.258;2023-04-25T09:30:41;3.92;;;3.45;;
11346;SDS011;5728;42.722;23.258;2023-04-25T09:33:08;6.43;;;3.55;;
11346;SDS011;5728;42.722;23.258;2023-04-25T09:35:36;8.32;;;4.95;;
11346;SDS011;5728;42.722;23.258;2023-04-25T09:38:10;10.02;;;3.78;;
11346;SDS011;5728;42.722;23.258;2023-04-25T09:40:41;3.65;;;2.83;;
11346;SDS011;5728;42.722;23.258;2023-04-25T09:43:09;4.25;;;2.83;;
11346;SDS011;5728;42.722;23.258;2023-04-25T09:45:43;4.53;;;3.30;;
11346;SDS011;5728;42.722;23.258;2023-04-25T09:48:10;9.43;;;3.28;;
11346;SDS011;5728;42.722;23.258;2023-04-25T09:50:38;5.95;;;3.20;;
11346;SDS011;5728;42.722;23.258;2023-04-25T09:53:05;5.57;;;3.45;;
11346;SDS011;5728;42.722;23.258;2023-04-25T09:55:34;4.75;;;2.42;;
11346;SDS011;5728;42.722;23.258;2023-04-25T09:58:03;4.32;;;2.20;;
11346;SDS011;5728;42.722;23.258;2023-04-25T10:00:32;3.50;;;2.13;;
11346;SDS011;5728;42.722;23.258;2023-04-25T10:02:59;5.05;;;2.03;;
11346;SDS011;5728;42.722;23.258;2023-04-25T10:05:29;2.33;;;2.13;;
11346;SDS011;5728;42.722;23.258;2023-04-25T10:07:58;1.92;;;1.70;;
11346;SDS011;5728;42.722;23.258;2023-04-25T10:10:28;3.17;;;1.80;;
11346;SDS011;5728;42.722;23.258;2023-04-25T10:13:02;2.67;;;1.80;;
11346;SDS011;5728;42.722;23.258;2023-04-25T10:15:30;2.38;;;1.90;;
11346;SDS011;5728;42.722;23.258;2023-04-25T10:17:58;4.10;;;1.70;;
11346;SDS011;5728;42.722;23.258;2023-04-25T10:20:25;1.85;;;1.50;;
11346;SDS011;5728;42.722;23.258;2023-04-25T10:22:53;2.92;;;1.85;;
11346;SDS011;5728;42.722;23.258;2023-04-25T10:25:22;5.97;;;2.17;;
11346;SDS011;5728;42.722;23.258;2023-04-25T10:27:50;4.57;;;1.90;;
11346;SDS011;5728;42.722;23.258;2023-04-25T10:30:18;1.45;;;1.35;;
11346;SDS011;5728;42.722;23.258;2023-04-25T10:32:45;3.13;;;1.58;;
11346;SDS011;5728;42.722;23.258;2023-04-25T10:35:15;2.00;;;1.55;;
11346;SDS011;5728;42.722;23.258;2023-04-25T10:37:58;2.60;;;1.77;;
11346;SDS011;5728;42.722;23.258;2023-04-25T10:40:25;2.50;;;1.50;;
11346;SDS011;5728;42.722;23.258;2023-04-25T10:42:53;6.50;;;1.70;;
11346;SDS011;5728;42.722;23.258;2023-04-25T10:45:21;6.45;;;1.52;;
11346;SDS011;5728;42.722;23.258;2023-04-25T10:47:48;1.65;;;1.48;;
11346;SDS011;5728;42.722;23.258;2023-04-25T10:50:15;3.47;;;1.50;;
11346;SDS011;5728;42.722;23.258;2023-04-25T10:52:42;2.67;;;1.63;;
11346;SDS011;5728;42.722;23.258;2023-04-25T10:55:09;1.20;;;1.20;;
11346;SDS011;5728;42.722;23.258;2023-04-25T10:57:37;1.02;;;0.98;;
11346;SDS011;5728;42.722;23.258;2023-04-25T11:00:07;1.70;;;1.30;;
11346;SDS011;5728;42.722;23.258;2023-04-25T11:02:38;1.75;;;1.10;;
11346;SDS011;5728;42.722;23.258;2023-04-25T11:05:08;1.23;;;1.13;;
11346;SDS011;5728;42.722;23.258;2023-04-25T11:07:37;1.33;;;1.20;;
11346;SDS011;5728;42.722;23.258;2023-04-25T11:10:10;1.00;;;1.00;;
11346;SDS011;5728;42.722;23.258;2023-04-25T11:12:37;4.70;;;1.00;;
11346;SDS011;5728;42.722;23.258;2023-04-25T11:15:04;0.90;;;0.90;;
11346;SDS011;5728;42.722;23.258;2023-04-25T11:17:32;0.93;;;0.90;;
11346;SDS011;5728;42.722;23.258;2023-04-25T11:20:01;3.22;;;1.00;;
11346;SDS011;5728;42.722;23.258;2023-04-25T11:22:31;1.90;;;1.38;;
11346;SDS011;5728;42.722;23.258;2023-04-25T11:24:58;2.83;;;1.58;;
11346;SDS011;5728;42.722;23.258;2023-04-25T11:27:30;1.77;;;1.25;;
11346;SDS011;5728;42.722;23.258;2023-04-25T11:29:57;2.00;;;1.20;;
11346;SDS011;5728;42.722;23.258;2023-04-25T11:32:24;5.70;;;2.40;;
11346;SDS011;5728;42.722;23.258;2023-04-25T11:34:52;1.30;;;1.20;;
11346;SDS011;5728;42.722;23.258;2023-04-25T11:37:20;1.83;;;1.73;;
11346;SDS011;5728;42.722;23.258;2023-04-25T11:39:47;1.85;;;1.75;;
11346;SDS011;5728;42.722;23.258;2023-04-25T11:42:14;1.10;;;1.10;;
11346;SDS011;5728;42.722;23.258;2023-04-25T11:44:40;1.67;;;1.23;;
11346;SDS011;5728;42.722;23.258;2023-04-25T11:47:07;1.10;;;1.10;;
11346;SDS011;5728;42.722;23.258;2023-04-25T11:49:35;1.30;;;1.20;;
11346;SDS011;5728;42.722;23.258;2023-04-25T11:52:02;1.00;;;1.00;;
11346;SDS011;5728;42.722;23.258;2023-04-25T11:54:30;1.13;;;1.00;;
11346;SDS011;5728;42.722;23.258;2023-04-25T11:56:57;4.73;;;1.27;;
11346;SDS011;5728;42.722;23.258;2023-04-25T11:59:24;0.90;;;0.90;;
11346;SDS011;5728;42.722;23.258;2023-04-25T12:01:52;1.55;;;1.45;;
11346;SDS011;5728;42.722;23.258;2023-04-25T12:04:20;2.63;;;1.20;;
11346;SDS011;5728;42.722;23.258;2023-04-25T12:06:48;1.47;;;1.10;;
11346;SDS011;5728;42.722;23.258;2023-04-25T12:09:16;1.40;;;1.30;;
11346;SDS011;5728;42.722;23.258;2023-04-25T12:11:46;1.20;;;1.10;;
11346;SDS011;5728;42.722;23.258;2023-04-25T12:14:20;2.80;;;1.80;;
11346;SDS011;5728;42.722;23.258;2023-04-25T12:16:49;2.33;;;1.33;;
11346;SDS011;5728;42.722;23.258;2023-04-25T12:19:16;2.05;;;1.52;;
11346;SDS011;5728;42.722;23.258;2023-04-25T12:21:46;2.70;;;0.90;;
11346;SDS011;5728;42.722;23.258;2023-04-25T12:24:14;5.20;;;1.88;;
11346;SDS011;5728;42.722;23.258;2023-04-25T12:26:50;2.60;;;1.20;;
11346;SDS011;5728;42.722;23.258;2023-04-25T12:29:18;3.83;;;1.33;;
11346;SDS011;5728;42.722;23.258;2023-04-25T12:31:46;1.67;;;1.40;;
11346;SDS011;5728;42.722;23.258;2023-04-25T12:34:13;5.27;;;1.20;;
11346;SDS011;5728;42.722;23.258;2023-04-25T12:36:40;1.30;;;1.13;;
11346;SDS011;5728;42.722;23.258;2023-04-25T12:39:07;1.10;;;1.00;;
11346;SDS011;5728;42.722;23.258;2023-04-25T12:41:34;2.60;;;1.20;;
11346;SDS011;5728;42.722;23.258;2023-04-25T12:44:02;1.30;;;1.20;;
11346;SDS011;5728;42.722;23.258;2023-04-25T12:46:28;2.03;;;1.50;;
11346;SDS011;5728;42.722;23.258;2023-04-25T12:48:55;1.57;;;1.20;;
11346;SDS011;5728;42.722;23.258;2023-04-25T12:51:22;1.40;;;1.30;;
11346;SDS011;5728;42.722;23.258;2023-04-25T12:53:50;6.07;;;1.73;;
11346;SDS011;5728;42.722;23.258;2023-04-25T12:56:17;1.73;;;1.53;;
11346;SDS011;5728;42.722;23.258;2023-04-25T12:58:44;2.00;;;1.80;;
11346;SDS011;5728;42.722;23.258;2023-04-25T13:01:12;1.63;;;1.53;;
11346;SDS011;5728;42.722;23.258;2023-04-25T13:03:39;2.10;;;2.00;;
11346;SDS011;5728;42.722;23.258;2023-04-25T13:06:06;3.07;;;1.80;;
11346;SDS011;5728;42.722;23.258;2023-04-25T13:08:33;1.75;;;1.40;;
11346;SDS011;5728;42.722;23.258;2023-04-25T13:11:00;2.05;;;1.60;;
11346;SDS011;5728;42.722;23.258;2023-04-25T13:13:26;1.40;;;1.30;;
11346;SDS011;5728;42.722;23.258;2023-04-25T13:15:53;2.28;;;1.90;;
11346;SDS011;5728;42.722;23.258;2023-04-25T13:18:22;3.10;;;2.05;;
11346;SDS011;5728;42.722;23.258;2023-04-25T13:20:51;1.77;;;1.67;;
11346;SDS011;5728;42.722;23.258;2023-04-25T13:23:18;3.58;;;2.50;;
11346;SDS011;5728;42.722;23.258;2023-04-25T13:25:45;4.57;;;1.97;;
11346;SDS011;5728;42.722;23.258;2023-04-25T13:28:12;4.77;;;2.00;;
11346;SDS011;5728;42.722;23.258;2023-04-25T13:30:39;3.00;;;2.10;;
11346;SDS011;5728;42.722;23.258;2023-04-25T13:33:06;2.77;;;2.33;;
11346;SDS011;5728;42.722;23.258;2023-04-25T13:35:35;2.93;;;1.97;;
11346;SDS011;5728;42.722;23.258;2023-04-25T13:38:04;4.37;;;3.00;;
11346;SDS011;5728;42.722;23.258;2023-04-25T13:40:31;10.07;;;2.40;;
11346;SDS011;5728;42.722;23.258;2023-04-25T13:42:58;4.33;;;2.70;;
11346;SDS011;5728;42.722;23.258;2023-04-25T13:45:25;3.07;;;2.27;;
11346;SDS011;5728;42.722;23.258;2023-04-25T13:47:52;2.13;;;1.90;;
11346;SDS011;5728;42.722;23.258;2023-04-25T13:50:18;4.17;;;2.07;;
11346;SDS011;5728;42.722;23.258;2023-04-25T13:52:47;2.53;;;2.00;;
11346;SDS011;5728;42.722;23.258;2023-04-25T13:55:14;4.00;;;2.40;;
11346;SDS011;5728;42.722;23.258;2023-04-25T13:57:42;3.67;;;2.30;;
11346;SDS011;5728;42.722;23.258;2023-04-25T14:00:09;1.90;;;1.70;;
11346;SDS011;5728;42.722;23.258;2023-04-25T14:02:36;2.23;;;1.77;;
11346;SDS011;5728;42.722;23.258;2023-04-25T14:05:04;4.07;;;2.17;;
11346;SDS011;5728;42.722;23.258;2023-04-25T14:07:31;4.30;;;1.70;;
11346;SDS011;5728;42.722;23.258;2023-04-25T14:10:01;2.10;;;1.70;;
11346;SDS011;5728;42.722;23.258;2023-04-25T14:12:28;3.70;;;2.00;;
11346;SDS011;5728;42.722;23.258;2023-04-25T14:14:55;2.97;;;2.13;;
11346;SDS011;5728;42.722;23.258;2023-04-25T14:17:21;2.10;;;1.80;;
11346;SDS011;5728;42.722;23.258;2023-04-25T14:19:49;3.67;;;1.77;;
11346;SDS011;5728;42.722;23.258;2023-04-25T14:22:16;1.60;;;1.50;;
11346;SDS011;5728;42.722;23.258;2023-04-25T14:24:42;1.80;;;1.40;;
11346;SDS011;5728;42.722;23.258;2023-04-25T14:27:10;2.50;;;1.90;;
11346;SDS011;5728;42.722;23.258;2023-04-25T14:29:37;3.40;;;1.80;;
11346;SDS011;5728;42.722;23.258;2023-04-25T14:32:04;1.87;;;1.50;;
11346;SDS011;5728;42.722;23.258;2023-04-25T14:34:31;1.27;;;1.17;;
11346;SDS011;5728;42.722;23.258;2023-04-25T14:36:58;2.00;;;1.63;;
11346;SDS011;5728;42.722;23.258;2023-04-25T14:39:24;2.23;;;1.30;;
11346;SDS011;5728;42.722;23.258;2023-04-25T14:41:51;3.20;;;1.77;;
11346;SDS011;5728;42.722;23.258;2023-04-25T14:44:19;2.43;;;1.47;;